Date,TemperatureHighF,TemperatureAvgF,TemperatureLowF,DewpointHighF,DewpointAvgF,DewpointLowF,HumidityHigh,HumidityAvg,HumidityLow,PressureMaxIn,PressureMinIn,WindSpeedMaxMPH,WindSpeedAvgMPH,GustSpeedMaxMPH,PrecipitationSumIn
2013-1-1,33,23,12,27,-4,-100,81,52,43,29.80,29.58,15,7,0,0.00
2013-1-2,18,10,4,2,-6,-100,72,54,42,29.99,29.80,15,8,0,0.00
2013-1-3,19,7,3,5,-46,-100,68,31,48,30.06,29.94,11,2,0,0.00
2013-1-4,35,27,12,26,-1,-100,75,56,64,29.94,29.72,8,5,0,0.00
2013-1-5,35,27,12,26,6,-100,73,53,35,30.16,29.70,19,5,0,0.00
2013-1-6,35,25,13,33,21,4,94,85,67,30.10,29.75,9,1,0,0.00
2013-1-7,26,17,9,23,10,2,90,75,54,30.27,29.80,6,2,0,0.00
2013-1-8,42,36,20,34,27,17,89,72,62,30.22,30.01,16,7,0,0.00
2013-1-9,43,36,24,39,30,20,90,80,63,30.25,29.69,11,3,0,0.00
2013-1-10,43,38,29,28,24,19,67,57,47,30.34,29.89,17,9,0,0.00
2013-1-11,29,27,24,20,18,16,71,69,67,30.36,30.28,8,2,0,0.00
2013-1-13,47,44,42,46,43,41,98,97,97,30.15,29.96,9,3,0,0.00
2013-1-14,49,45,37,49,42,25,99,89,62,30.17,29.86,13,6,0,0.00
2013-1-15,37,33,28,26,22,18,81,65,51,30.31,30.16,4,0,0,0.00
2013-1-16,38,34,29,36,28,15,96,81,50,30.29,29.75,11,4,0,0.00
2013-1-17,39,25,14,37,9,-10,92,51,28,30.12,29.75,10,7,0,0.00
2013-1-18,19,12,6,1,-5,-13,59,45,31,30.38,30.09,11,4,0,0.00
2013-1-19,35,32,19,33,28,0,97,89,42,30.37,29.92,13,4,0,0.00
2013-1-20,42,35,26,34,21,7,96,58,38,29.92,29.53,15,8,0,0.00
2013-1-21,25,20,14,14,2,-5,81,47,29,30.02,29.77,14,4,0,0.00
2013-1-22,19,13,5,15,3,-10,84,65,39,29.94,29.75,12,4,0,0.00
2013-1-23,10,4,1,-10,-14,-18,48,40,34,30.03,29.94,15,10,0,0.00
2013-1-25,6,6,6,-4,-4,-4,62,62,62,30.09,30.09,11,11,0,0.00
2013-4-26,53,44,35,38,35,33,92,71,51,30.47,30.42,6,1,0,0.00
2013-4-27,55,43,32,38,33,27,96,71,38,30.47,30.34,11,2,0,0.00
2013-4-28,56,44,36,44,38,-100,93,81,52,30.40,30.30,6,1,0,0.00
2013-4-29,55,46,35,44,40,33,96,80,56,30.35,30.29,9,2,0,0.00
2013-4-30,61,48,36,47,38,28,97,72,28,30.42,30.30,7,1,0,0.00
2013-5-1,61,48,37,44,39,33,97,75,38,30.52,30.42,9,2,0,0.00
2013-5-2,55,46,38,43,40,36,95,78,58,30.57,30.46,6,2,0,0.00
2013-5-3,56,48,42,44,40,37,86,75,60,30.59,30.43,9,3,0,0.00
2013-5-4,52,44,36,41,38,34,96,78,58,30.45,30.38,6,1,0,0.00
2013-5-5,56,46,34,42,38,32,95,75,52,30.38,30.31,10,3,0,0.00
2013-5-6,54,45,37,47,42,36,98,90,75,30.33,30.23,14,4,0,0.00
2013-5-7,61,49,42,51,46,41,99,91,66,30.23,30.16,10,3,0,0.00
2013-5-8,60,52,44,55,50,43,99,93,79,30.32,30.22,7,1,0,0.00
2013-5-9,56,51,49,55,50,48,98,97,96,30.22,29.98,2,0,0,0.00
2013-5-10,58,51,47,56,48,-100,99,96,87,30.04,29.94,6,1,0,0.00
2013-5-11,55,49,46,54,48,45,99,98,97,30.02,29.78,12,3,0,0.00
2013-5-12,55,51,48,54,50,-100,99,99,98,29.78,29.58,9,2,0,0.00
2013-5-13,53,48,41,49,40,34,99,76,50,30.03,29.72,16,6,0,0.00
2013-5-14,49,45,41,40,37,33,90,72,60,30.02,29.95,4,1,0,0.00
2013-5-15,60,50,37,46,38,28,96,67,31,30.03,29.77,14,6,0,0.00
2013-5-16,65,50,47,54,29,-100,97,81,51,29.79,29.61,12,3,0,0.00
2013-5-17,62,52,44,47,36,-100,84,65,46,30.22,29.79,6,1,0,0.00
2013-5-18,53,46,39,44,40,36,91,80,69,30.41,30.22,10,3,0,0.00
2013-5-19,54,48,39,48,44,37,96,86,69,30.44,30.32,9,2,0,0.00
2013-5-20,54,50,48,53,49,46,98,97,94,30.31,29.98,15,3,0,0.00
2013-5-21,49,47,47,48,46,46,98,98,97,30.12,30.04,5,1,0,0.00
2013-5-22,50,48,47,49,47,46,99,98,97,30.10,29.98,5,2,0,0.00
2013-5-23,58,52,46,57,51,45,99,98,97,30.02,29.90,16,3,0,0.00
2013-5-24,58,55,51,58,55,50,99,99,98,29.90,29.74,18,8,0,0.00
2013-5-25,52,50,47,52,50,47,99,99,99,29.85,29.73,7,3,0,0.00
2013-5-26,51,47,44,49,46,42,99,96,89,29.94,29.67,9,2,0,0.00
2013-5-27,66,50,42,46,42,36,96,76,34,30.19,29.94,8,2,0,0.00
2013-5-28,68,54,39,48,41,37,97,67,35,30.27,30.19,9,2,0,0.00
2013-5-29,52,49,45,51,48,41,99,97,86,30.28,30.05,6,1,0,0.00
2013-5-30,79,61,49,65,57,49,99,86,60,30.05,30.00,5,1,0,0.00
2013-5-31,84,68,56,64,59,55,96,74,45,30.07,29.92,9,2,0,0.00
2013-6-1,76,65,56,63,58,53,93,79,64,29.96,29.87,6,1,0,0.00
2013-6-2,72,62,54,63,56,-100,95,85,73,29.87,29.78,15,4,0,0.00
2013-6-3,62,58,54,61,56,52,97,94,86,29.87,29.77,9,1,0,0.00
2013-6-4,68,60,51,55,47,40,97,65,40,30.03,29.78,10,2,0,0.00
2013-6-5,66,57,47,49,44,40,82,63,40,30.19,30.03,7,2,0,0.00
2013-6-6,64,55,46,52,48,42,95,78,54,30.26,30.18,5,1,0,0.00
2013-6-7,58,53,50,52,50,47,96,89,71,30.22,30.04,3,0,0,0.00
2013-6-8,64,56,50,63,54,49,98,94,83,30.05,29.65,7,2,0,0.00
2013-6-9,61,55,52,54,52,50,96,88,78,30.15,29.98,10,2,0,0.00
2013-6-10,66,57,53,56,52,47,97,82,63,30.25,30.11,9,2,0,0.00
2013-6-11,53,52,50,52,50,48,98,96,89,30.11,29.57,7,3,0,0.00
2013-6-12,58,54,49,57,53,48,98,97,96,29.72,29.50,3,0,0,0.00
2013-6-13,68,57,52,58,50,-100,97,83,60,29.83,29.72,7,1,0,0.00
2013-6-14,60,54,49,53,49,46,94,84,67,29.78,29.72,3,0,0,0.00
2013-6-15,77,60,45,52,47,41,96,66,29,29.91,29.75,6,2,0,0.00
2013-6-16,74,59,53,56,52,49,94,80,41,29.93,29.78,8,1,0,0.00
2013-6-17,75,61,54,62,57,52,97,87,55,29.89,29.75,11,2,0,0.00
2013-6-18,68,60,53,59,54,52,97,82,56,29.99,29.86,4,0,0,0.00
2013-6-19,74,63,51,55,49,41,94,65,34,30.15,29.95,4,0,0,0.00
2013-6-20,68,58,48,57,51,44,90,77,56,30.28,30.15,8,1,0,0.00
2013-6-22,71,61,57,63,57,55,92,86,69,30.24,30.15,7,1,0,0.00
2013-6-23,63,59,55,60,56,53,96,93,86,30.19,30.03,9,1,0,0.00
2013-6-24,87,78,69,70,67,63,81,68,53,29.91,29.84,2,1,0,0.00
2013-6-25,81,68,62,66,63,59,95,83,57,29.88,29.74,6,1,0,0.00
2013-6-26,74,61,55,72,60,54,97,95,88,29.93,29.73,4,0,0,0.00
2013-6-27,56,53,52,55,52,51,98,95,92,29.95,29.91,4,1,0,0.00
2013-6-28,59,56,53,58,55,52,98,98,98,29.92,29.65,5,2,0,0.00
2013-6-29,65,59,57,65,59,56,99,99,98,29.77,29.64,8,2,0,0.00
2013-6-30,65,61,57,65,61,57,99,99,97,29.99,29.77,6,1,0,0.00
2013-7-1,71,60,56,69,60,56,99,97,87,30.15,29.99,4,0,0,0.00
2013-7-2,62,59,55,61,58,54,99,97,96,30.26,30.14,7,1,0,0.00
2013-7-3,73,62,57,64,59,56,98,91,72,30.23,30.15,6,0,0,0.00
2013-7-4,84,69,60,71,65,59,98,87,62,30.18,30.09,8,1,0,0.00
2013-7-5,84,73,63,71,68,61,96,85,60,30.12,30.04,3,0,0,0.00